Time;durP1;ratioP1;P1;durP2;ratioP2;P2;SDS_P1;SDS_P2;PMS_P1;PMS_P2;Temp;Humidity;BMP_temperature;BMP_pressure;BME280_temperature;BME280_humidity;BME280_pressure;Samples;Min_cycle;Max_cycle;Signal;HPM_P1;HPM_P2
2023/08/19 00:01:48;;;;;;;4.30;1.30;;;;;;;21.84;100.00;99990.22;5024313;28;20040;-74
2023/08/19 00:04:34;;;;;;;3.95;1.63;;;;;;;21.80;100.00;99986.56;5024945;28;20045;-74
2023/08/19 00:07:20;;;;;;;3.22;1.73;;;;;;;21.81;100.00;99985.34;5005474;28;20038;-74
2023/08/19 00:10:06;;;;;;;2.03;1.50;;;;;;;21.82;100.00;99984.97;5008783;28;20033;-74
2023/08/19 00:12:52;;;;;;;2.53;1.40;;;;;;;21.75;100.00;99984.88;5038701;28;20409;-74
2023/08/19 00:15:37;;;;;;;2.05;1.50;;;;;;;21.74;100.00;99997.38;5024685;28;20041;-74
2023/08/19 00:18:23;;;;;;;4.45;1.48;;;;;;;21.70;100.00;100004.16;5024541;28;21532;-74
2023/08/19 00:21:09;;;;;;;2.78;1.70;;;;;;;21.65;100.00;100010.97;5037447;28;20030;-74
2023/08/19 00:23:56;;;;;;;3.70;1.65;;;;;;;21.63;100.00;99999.25;5038463;28;20057;-74
2023/08/19 00:26:42;;;;;;;4.57;1.67;;;;;;;21.58;100.00;100000.38;5038087;28;20034;-74
2023/08/19 00:29:28;;;;;;;2.47;1.70;;;;;;;21.52;100.00;99987.78;5004559;28;20050;-74
2023/08/19 00:32:14;;;;;;;4.78;1.65;;;;;;;21.46;100.00;99978.00;5033732;28;20026;-74
2023/08/19 00:34:59;;;;;;;2.88;1.50;;;;;;;21.46;100.00;100003.44;5004942;28;20037;-74
2023/08/19 00:37:45;;;;;;;3.35;1.52;;;;;;;21.41;100.00;100015.84;5007441;28;20490;-74
2023/08/19 00:40:31;;;;;;;2.75;1.50;;;;;;;21.36;100.00;100006.84;5020023;28;20033;-74
2023/08/19 00:43:17;;;;;;;5.10;1.70;;;;;;;21.36;100.00;100012.50;5019247;28;20029;-74
2023/08/19 00:46:03;;;;;;;4.25;1.60;;;;;;;21.32;100.00;100011.66;5036570;28;20033;-74
2023/08/19 00:48:48;;;;;;;3.33;1.50;;;;;;;21.27;100.00;100020.44;4999109;28;20034;-74
2023/08/19 00:51:34;;;;;;;3.35;1.33;;;;;;;21.23;100.00;100030.84;5036291;28;20033;-74
2023/08/19 00:54:20;;;;;;;3.05;1.58;;;;;;;21.17;100.00;100030.34;5006003;28;20033;-74
2023/08/19 00:57:06;;;;;;;3.50;1.42;;;;;;;21.08;100.00;100030.59;5007397;28;20033;-74
2023/08/19 00:59:51;;;;;;;3.63;1.77;;;;;;;21.05;100.00;100031.38;5034535;28;20037;-74
2023/08/19 01:02:38;;;;;;;2.53;1.40;;;;;;;21.05;100.00;100037.00;5009890;28;20490;-74
2023/08/19 01:05:53;;;;;;;4.03;1.83;;;;;;;21.00;100.00;100048.63;5023741;28;20379;-74
2023/08/19 01:08:45;;;;;;;3.05;1.55;;;;;;;20.93;100.00;100046.50;5028054;28;20046;-74
2023/08/19 01:12:09;;;;;;;5.57;1.77;;;;;;;20.91;100.00;100048.88;5021826;28;20073;-74
2023/08/19 01:14:58;;;;;;;;;;;;;;;20.86;100.00;100040.69;5024336;28;20095;-74
2023/08/19 01:17:45;;;;;;;3.97;1.80;;;;;;;20.84;100.00;100037.47;5037392;28;19924;-74
2023/08/19 01:20:31;;;;;;;2.95;1.63;;;;;;;20.78;100.00;100040.94;5002812;28;20091;-74
2023/08/19 01:23:19;;;;;;;3.25;1.77;;;;;;;20.76;100.00;100046.97;5026144;28;20037;-74
2023/08/19 01:26:05;;;;;;;3.47;1.40;;;;;;;20.69;100.00;100050.47;5023919;28;20026;-74
2023/08/19 01:28:50;;;;;;;3.30;1.83;;;;;;;20.66;100.00;100054.03;5005671;28;20099;-74
2023/08/19 01:31:36;;;;;;;3.03;1.50;;;;;;;20.61;100.00;100062.81;5023176;28;20037;-74
2023/08/19 01:34:24;;;;;;;3.70;2.17;;;;;;;20.56;100.00;100053.81;5023759;28;20045;-74
2023/08/19 01:37:12;;;;;;;2.80;1.73;;;;;;;20.51;100.00;100057.75;5023810;28;20034;-74
2023/08/19 01:39:58;;;;;;;4.53;1.73;;;;;;;20.48;100.00;100055.69;5023573;28;20037;-74
2023/08/19 01:42:44;;;;;;;3.55;1.70;;;;;;;20.43;100.00;100045.50;5007705;28;20029;-74
2023/08/19 01:45:30;;;;;;;3.40;1.40;;;;;;;20.43;100.00;100053.16;5008953;28;20037;-74
2023/08/19 01:48:16;;;;;;;2.28;1.60;;;;;;;20.41;100.00;100061.16;5005776;28;20061;-74
2023/08/19 01:51:02;;;;;;;4.13;2.00;;;;;;;20.40;100.00;100062.34;5022475;28;20041;-74
2023/08/19 01:53:48;;;;;;;2.78;1.40;;;;;;;20.40;100.00;100066.00;5010536;28;20394;-74
2023/08/19 01:56:33;;;;;;;2.80;1.67;;;;;;;20.40;100.00;100074.44;5008942;28;20037;-74
2023/08/19 01:59:19;;;;;;;2.97;1.65;;;;;;;20.38;100.00;100076.00;5022399;28;20041;-74
2023/08/19 02:02:05;;;;;;;2.50;1.50;;;;;;;20.36;100.00;100084.81;5006204;28;20105;-74
2023/08/19 02:04:51;;;;;;;2.63;1.48;;;;;;;20.38;100.00;100076.00;5021984;28;20041;-74
2023/08/19 02:07:36;;;;;;;5.03;1.80;;;;;;;20.40;100.00;100077.28;5005163;28;20547;-73
2023/08/19 02:10:22;;;;;;;3.38;1.77;;;;;;;20.38;100.00;100076.00;5026285;28;20037;-74
2023/08/19 02:13:08;;;;;;;4.85;1.70;;;;;;;20.36;100.00;100090.47;5034273;28;20045;-74
2023/08/19 02:15:54;;;;;;;3.80;1.60;;;;;;;20.36;100.00;100095.28;5022786;28;20068;-74
2023/08/19 02:18:39;;;;;;;2.50;1.50;;;;;;;20.38;100.00;100092.94;5035743;28;20052;-74
2023/08/19 02:21:25;;;;;;;4.70;1.60;;;;;;;20.36;100.00;100100.94;5010255;28;20033;-74
2023/08/19 02:24:11;;;;;;;5.13;1.63;;;;;;;20.36;100.00;100098.13;5022977;28;20033;-74
2023/08/19 02:26:57;;;;;;;3.85;1.60;;;;;;;20.36;100.00;100100.94;5009261;28;20087;-74
2023/08/19 02:29:43;;;;;;;4.93;1.77;;;;;;;20.34;100.00;100097.66;5010766;28;20037;-74
2023/08/19 02:32:28;;;;;;;5.32;1.70;;;;;;;20.30;100.00;100098.41;5041090;28;20493;-74
2023/08/19 02:35:16;;;;;;;3.80;2.03;;;;;;;20.28;100.00;100105.59;5040896;28;20095;-74
2023/08/19 02:38:02;;;;;;;5.50;1.90;;;;;;;20.26;100.00;100108.81;5016871;28;20038;-74
2023/08/19 02:40:49;;;;;;;5.65;1.80;;;;;;;20.24;100.00;100099.06;4989188;28;20494;-74
2023/08/19 02:43:36;;;;;;;6.35;1.60;;;;;;;20.25;100.00;100100.69;5005013;28;20593;-74
2023/08/19 02:46:21;;;;;;;5.18;1.80;;;;;;;20.26;100.00;100108.00;5035111;28;20053;-74
2023/08/19 02:49:07;;;;;;;6.07;1.98;;;;;;;20.25;100.00;100112.81;5012114;28;20041;-74
2023/08/19 02:51:53;;;;;;;3.88;1.40;;;;;;;20.22;100.00;100116.34;5022586;28;20037;-74
2023/08/19 02:54:39;;;;;;;4.00;1.58;;;;;;;20.21;100.00;100113.91;5008391;28;20030;-74
2023/08/19 02:57:24;;;;;;;4.18;1.67;;;;;;;20.19;100.00;100117.09;5008773;28;20030;-74
2023/08/19 03:00:10;;;;;;;4.45;1.80;;;;;;;20.18;100.00;100118.28;5034996;28;20171;-74
2023/08/19 03:02:56;;;;;;;6.07;1.70;;;;;;;20.18;100.00;100134.38;5011321;28;20033;-74
2023/08/19 03:05:42;;;;;;;3.13;1.60;;;;;;;20.16;100.00;100129.09;5039855;28;20040;-74
2023/08/19 03:08:28;;;;;;;5.53;1.70;;;;;;;20.14;100.00;100133.47;5026860;28;20124;-74
2023/08/19 03:11:14;;;;;;;4.50;2.00;;;;;;;20.09;100.00;100140.25;5025414;28;20069;-74
2023/08/19 03:13:59;;;;;;;5.45;1.70;;;;;;;20.09;100.00;100141.06;5006434;28;20045;-74
2023/08/19 03:16:45;;;;;;;4.63;1.88;;;;;;;20.07;100.00;100146.22;5057109;28;20046;-74
2023/08/19 03:19:31;;;;;;;4.45;1.60;;;;;;;20.08;100.00;100138.59;5029065;28;20056;-74
2023/08/19 03:22:17;;;;;;;4.13;1.60;;;;;;;20.05;100.00;100133.69;5018137;28;20080;-74
2023/08/19 03:25:03;;;;;;;4.15;1.67;;;;;;;20.01;100.00;100146.91;5025868;28;20421;-74
2023/08/19 03:27:48;;;;;;;7.00;2.47;;;;;;;20.00;100.00;100150.88;5025357;28;20036;-73
2023/08/19 03:30:34;;;;;;;6.13;1.90;;;;;;;19.95;100.00;100154.00;5025364;28;20033;-74
2023/08/19 03:33:20;;;;;;;7.25;1.80;;;;;;;19.94;100.00;100155.16;5025839;28;20048;-74
2023/08/19 03:36:06;;;;;;;4.38;1.67;;;;;;;19.88;100.00;100153.81;5026232;28;20033;-74
2023/08/19 03:38:52;;;;;;;4.93;1.52;;;;;;;19.83;100.00;100152.09;5025694;28;20061;-74
2023/08/19 03:41:37;;;;;;;7.40;1.70;;;;;;;19.77;100.00;100157.19;5025530;28;20030;-74
2023/08/19 03:44:23;;;;;;;7.95;1.80;;;;;;;19.70;100.00;100165.47;5038656;28;20045;-74
2023/08/19 03:47:12;;;;;;;7.68;1.92;;;;;;;19.69;100.00;100174.28;5023783;28;20037;-74
2023/08/19 03:49:58;;;;;;;8.63;1.75;;;;;;;19.63;100.00;100173.69;5025612;28;20040;-73
2023/08/19 03:52:44;;;;;;;6.78;1.70;;;;;;;19.55;100.00;100180.34;5025426;28;20042;-74
2023/08/19 03:55:30;;;;;;;6.82;1.65;;;;;;;19.56;100.00;100181.97;5031773;28;20037;-74
2023/08/19 03:58:16;;;;;;;7.95;1.90;;;;;;;19.47;100.00;100186.94;5025751;28;20512;-74
2023/08/19 04:01:06;;;;;;;7.57;1.83;;;;;;;19.40;100.00;100193.22;5037583;28;20040;-74
2023/08/19 04:03:51;;;;;;;8.52;2.33;;;;;;;19.32;100.00;100200.66;5005616;28;20041;-73
2023/08/19 04:06:37;;;;;;;8.30;1.98;;;;;;;19.28;100.00;100198.91;5007234;28;20092;-74
2023/08/19 04:09:23;;;;;;;5.80;1.60;;;;;;;19.20;100.00;100204.38;5047512;28;20060;-74
2023/08/19 04:12:09;;;;;;;10.10;2.25;;;;;;;19.17;100.00;100204.28;5014441;28;20029;-74
2023/08/19 04:14:55;;;;;;;9.40;1.67;;;;;;;19.07;100.00;100199.16;5023476;28;20034;-73
2023/08/19 04:17:40;;;;;;;5.60;1.52;;;;;;;19.05;100.00;100204.31;5036796;28;20071;-73
2023/08/19 04:20:26;;;;;;;8.15;2.20;;;;;;;19.01;100.00;100218.28;5029016;28;20571;-73
2023/08/19 04:23:12;;;;;;;7.72;1.70;;;;;;;18.98;100.00;100222.63;5007712;28;20098;-73
2023/08/19 04:25:58;;;;;;;5.72;1.67;;;;;;;18.91;100.00;100228.03;5062637;28;20500;-73
2023/08/19 04:28:43;;;;;;;7.05;1.55;;;;;;;18.83;100.00;100228.19;5005458;28;20039;-73
2023/08/19 04:31:29;;;;;;;6.78;1.80;;;;;;;18.78;100.00;100232.09;5004505;28;20034;-73
2023/08/19 04:34:15;;;;;;;6.85;1.70;;;;;;;18.75;100.00;100236.44;5022787;28;20033;-73
2023/08/19 04:37:01;;;;;;;7.38;1.67;;;;;;;18.71;100.00;100238.28;5006968;28;20038;-73
2023/08/19 04:39:47;;;;;;;8.77;1.60;;;;;;;18.67;100.00;100242.19;5004999;28;20088;-73
2023/08/19 04:42:32;;;;;;;11.30;1.83;;;;;;;18.63;100.00;100250.50;5049238;28;20083;-73
2023/08/19 04:45:18;;;;;;;8.25;2.42;;;;;;;18.62;100.00;100257.28;5023655;28;20033;-73
2023/08/19 04:48:05;;;;;;;9.45;1.83;;;;;;;18.55;100.00;100268.31;5024310;28;20056;-73
2023/08/19 04:50:51;;;;;;;11.07;2.28;;;;;;;18.46;100.00;100271.25;5024384;28;20042;-73
2023/08/19 04:53:36;;;;;;;6.85;1.73;;;;;;;18.41;100.00;100267.88;5022562;28;20041;-73
2023/08/19 04:56:22;;;;;;;9.45;1.90;;;;;;;18.39;100.00;100279.47;5023152;28;20029;-73
2023/08/19 04:59:08;;;;;;;6.35;1.42;;;;;;;18.34;100.00;100278.91;5022982;28;20030;-73
2023/08/19 05:01:54;;;;;;;8.90;1.95;;;;;;;18.34;100.00;100288.16;5005310;28;20030;-73
2023/08/19 05:04:40;;;;;;;7.88;1.50;;;;;;;18.29;100.00;100294.00;5010367;28;20030;-73
2023/08/19 05:07:25;;;;;;;6.10;1.70;;;;;;;18.27;100.00;100296.34;5017557;28;20125;-73
2023/08/19 05:10:11;;;;;;;7.63;1.83;;;;;;;18.21;100.00;100301.38;5007975;28;20033;-73
2023/08/19 05:12:58;;;;;;;6.22;1.60;;;;;;;18.19;100.00;100311.31;5034594;28;20401;-73
2023/08/19 05:15:43;;;;;;;7.90;1.73;;;;;;;18.14;100.00;100320.00;5010034;28;20095;-73
2023/08/19 05:18:29;;;;;;;6.75;1.80;;;;;;;18.13;100.00;100315.53;5009425;28;20418;-73
2023/08/19 05:21:15;;;;;;;8.25;2.03;;;;;;;18.09;100.00;100321.03;5037843;28;20022;-73
2023/08/19 05:24:01;;;;;;;10.27;1.90;;;;;;;18.08;100.00;100328.66;5035282;28;20144;-73
2023/08/19 05:26:46;;;;;;;7.07;1.55;;;;;;;18.11;100.00;100317.88;5002944;28;20069;-73
2023/08/19 05:29:32;;;;;;;8.50;1.98;;;;;;;18.09;100.00;100318.22;5023216;28;20037;-73
2023/08/19 05:32:18;;;;;;;11.32;1.90;;;;;;;18.07;100.00;100314.94;5007933;28;20100;-73
2023/08/19 05:35:04;;;;;;;8.15;1.95;;;;;;;18.07;100.00;100315.75;5017004;28;20038;-73
2023/08/19 05:37:50;;;;;;;7.15;1.90;;;;;;;18.08;100.00;100316.59;5018835;28;20036;-73
2023/08/19 05:40:36;;;;;;;7.43;1.83;;;;;;;18.13;100.00;100318.34;5021696;28;20401;-73
2023/08/19 05:43:21;;;;;;;8.43;2.20;;;;;;;18.15;100.00;100321.63;5037063;28;20033;-73
2023/08/19 05:46:07;;;;;;;7.55;2.10;;;;;;;18.23;100.00;100329.13;5017282;28;20360;-73
2023/08/19 05:48:53;;;;;;;5.80;1.80;;;;;;;18.27;100.00;100328.06;5023187;28;20041;-73
2023/08/19 05:51:39;;;;;;;7.85;1.50;;;;;;;18.33;100.00;100334.31;5006814;28;20029;-73
2023/08/19 05:54:25;;;;;;;7.38;1.83;;;;;;;18.38;100.00;100333.25;5009820;28;20040;-73
2023/08/19 05:57:10;;;;;;;7.40;2.13;;;;;;;18.44;100.00;100340.25;5013588;28;20038;-73
2023/08/19 05:59:56;;;;;;;6.75;1.95;;;;;;;18.53;100.00;100333.38;5008652;28;20029;-73
2023/08/19 06:02:42;;;;;;;7.40;1.70;;;;;;;18.65;100.00;100346.59;5023127;28;20079;-73
2023/08/19 06:05:28;;;;;;;10.13;2.25;;;;;;;18.74;100.00;100346.50;5023299;28;20488;-73
2023/08/19 06:08:14;;;;;;;6.85;1.70;;;;;;;18.84;100.00;100354.47;5011042;28;20140;-73
2023/08/19 06:11:02;;;;;;;10.10;2.05;;;;;;;18.97;100.00;100363.69;5008739;28;20405;-73
2023/08/19 06:13:47;;;;;;;9.32;2.35;;;;;;;19.08;100.00;100364.84;5023447;28;20485;-73
2023/08/19 06:16:33;;;;;;;11.68;2.13;;;;;;;19.21;100.00;100368.44;5003110;28;20049;-73
2023/08/19 06:19:19;;;;;;;8.88;1.90;;;;;;;19.36;100.00;100375.31;5031537;28;20037;-73
2023/08/19 06:22:04;;;;;;;11.52;1.90;;;;;;;19.49;100.00;100373.28;5036667;28;20030;-73
2023/08/19 06:24:50;;;;;;;12.07;2.70;;;;;;;19.64;100.00;100369.72;5025427;28;20122;-73
2023/08/19 06:27:36;;;;;;;8.27;1.83;;;;;;;19.80;100.00;100367.78;5022979;28;20029;-73
2023/08/19 06:30:22;;;;;;;12.13;2.22;;;;;;;19.96;100.00;100376.28;5020671;28;20040;-73
2023/08/19 06:33:08;;;;;;;11.10;2.08;;;;;;;20.15;100.00;100374.75;5035487;28;20041;-73
2023/08/19 06:35:56;;;;;;;10.75;2.13;;;;;;;20.34;100.00;100376.84;5008862;28;20515;-73
2023/08/19 06:38:44;;;;;;;12.00;2.75;;;;;;;20.49;100.00;100382.50;5026737;28;20033;-74
2023/08/19 06:41:32;;;;;;;12.95;3.25;;;;;;;20.62;100.00;100388.09;5027145;28;20029;-74
2023/08/19 06:44:17;;;;;;;11.60;2.60;;;;;;;20.75;100.00;100396.09;5002151;28;20040;-74
2023/08/19 06:47:03;;;;;;;15.60;2.30;;;;;;;20.86;100.00;100396.31;5012362;28;20482;-73
2023/08/19 06:49:49;;;;;;;15.50;3.25;;;;;;;20.94;100.00;100395.31;5009280;28;20085;-73
2023/08/19 06:52:36;;;;;;;16.73;2.97;;;;;;;21.00;100.00;100401.47;5027080;28;20026;-73
2023/08/19 06:55:22;;;;;;;12.70;2.50;;;;;;;21.07;100.00;100409.31;5021773;28;20045;-73
2023/08/19 06:58:10;;;;;;;14.70;2.70;;;;;;;21.13;100.00;100411.47;5010076;28;20038;-73
2023/08/19 07:00:59;;;;;;;14.38;2.50;;;;;;;21.18;100.00;100414.03;5006660;28;20048;-73
2023/08/19 07:03:45;;;;;;;16.83;2.40;;;;;;;21.23;100.00;100423.38;4998516;28;20034;-73
2023/08/19 07:06:31;;;;;;;13.52;2.40;;;;;;;21.25;100.00;100419.00;5039265;28;20513;-74
2023/08/19 07:09:17;;;;;;;14.63;2.80;;;;;;;21.29;100.00;100424.75;5026179;28;20053;-73
2023/08/19 07:12:03;;;;;;;10.38;2.53;;;;;;;21.33;100.00;100436.94;5030327;28;20036;-73
2023/08/19 07:14:49;;;;;;;13.07;2.70;;;;;;;21.34;100.00;100432.91;5038933;28;20034;-73
2023/08/19 07:17:35;;;;;;;11.45;2.28;;;;;;;21.38;100.00;100436.69;5024113;28;20081;-73
2023/08/19 07:20:21;;;;;;;13.60;2.53;;;;;;;21.41;100.00;100441.59;5017914;28;20036;-73
2023/08/19 07:23:07;;;;;;;15.13;3.55;;;;;;;21.45;100.00;100453.78;5001269;28;20038;-74
2023/08/19 07:25:53;;;;;;;14.63;2.85;;;;;;;21.49;100.00;100463.16;5011672;28;20067;-73
2023/08/19 07:28:39;;;;;;;14.45;2.88;;;;;;;21.53;100.00;100464.06;5019085;28;20112;-73
2023/08/19 07:31:25;;;;;;;18.38;3.03;;;;;;;21.56;100.00;100460.50;5012559;28;20120;-73
2023/08/19 07:34:11;;;;;;;17.60;2.42;;;;;;;21.59;100.00;100465.44;5011405;28;20041;-73
2023/08/19 07:36:56;;;;;;;14.90;2.58;;;;;;;21.66;100.00;100467.56;5022738;28;20038;-73
2023/08/19 07:39:42;;;;;;;9.75;2.08;;;;;;;21.73;100.00;100476.22;5006091;28;20077;-73
2023/08/19 07:42:28;;;;;;;12.48;2.55;;;;;;;21.83;100.00;100481.25;5041409;28;20026;-73
2023/08/19 07:45:14;;;;;;;17.45;3.08;;;;;;;21.97;100.00;100483.56;5019615;28;20041;-73
2023/08/19 07:47:59;;;;;;;11.85;2.40;;;;;;;22.08;100.00;100487.44;5025405;28;20549;-73
2023/08/19 07:50:45;;;;;;;16.63;2.83;;;;;;;22.21;100.00;100490.16;5005747;28;20462;-74
2023/08/19 07:53:31;;;;;;;15.15;2.28;;;;;;;22.32;100.00;100493.19;5024272;28;20516;-74
2023/08/19 07:56:17;;;;;;;11.98;2.92;;;;;;;22.43;100.00;100497.88;5020015;28;20041;-74
2023/08/19 07:59:03;;;;;;;16.52;3.35;;;;;;;22.53;100.00;100493.59;5011080;28;20038;-73
2023/08/19 08:01:49;;;;;;;11.95;2.58;;;;;;;22.64;100.00;100502.28;5013892;28;20397;-74
2023/08/19 08:04:35;;;;;;;9.82;2.08;;;;;;;22.77;100.00;100506.56;5010970;28;20124;-74
2023/08/19 08:07:21;;;;;;;11.23;2.38;;;;;;;22.84;100.00;100503.03;5037934;28;20136;-74
2023/08/19 08:10:07;;;;;;;11.48;2.47;;;;;;;22.90;100.00;100519.34;5021186;28;20057;-74
2023/08/19 08:12:53;;;;;;;11.38;2.63;;;;;;;22.99;100.00;100509.81;5035746;28;20128;-73
2023/08/19 08:15:39;;;;;;;14.45;2.22;;;;;;;23.06;100.00;100510.72;5024624;28;20045;-74
2023/08/19 08:18:25;;;;;;;15.68;3.10;;;;;;;23.15;100.00;100514.13;5023558;28;20046;-73
2023/08/19 08:21:12;;;;;;;15.45;2.88;;;;;;;23.32;100.00;100512.78;5024846;28;20120;-74
2023/08/19 08:23:58;;;;;;;14.55;2.55;;;;;;;23.49;100.00;100521.94;5006272;28;20033;-74
2023/08/19 08:26:43;;;;;;;13.13;2.33;;;;;;;23.66;100.00;100532.72;5038543;28;20144;-74
2023/08/19 08:29:29;;;;;;;10.40;2.28;;;;;;;23.81;100.00;100528.91;4994327;28;20464;-74
2023/08/19 08:32:15;;;;;;;15.75;2.75;;;;;;;23.94;100.00;100537.19;5020676;28;20625;-74
2023/08/19 08:35:01;;;;;;;11.77;2.05;;;;;;;24.06;100.00;100531.28;5010897;28;20037;-74
2023/08/19 08:37:46;;;;;;;14.05;2.45;;;;;;;24.18;100.00;100533.03;5026272;28;20033;-74
2023/08/19 08:40:32;;;;;;;14.05;2.63;;;;;;;24.35;100.00;100545.81;5024572;28;20033;-73
2023/08/19 08:43:18;;;;;;;11.68;2.10;;;;;;;24.42;100.00;100543.88;5036857;28;20033;-74
2023/08/19 08:46:04;;;;;;;17.15;2.80;;;;;;;24.45;100.00;100548.81;5024629;28;20036;-74
2023/08/19 08:48:50;;;;;;;14.20;2.33;;;;;;;24.63;100.00;100551.84;5011247;28;20478;-74
2023/08/19 08:51:35;;;;;;;12.38;2.22;;;;;;;24.76;100.00;100546.69;5007039;28;20034;-74
2023/08/19 08:54:21;;;;;;;13.15;2.30;;;;;;;24.93;100.00;100533.88;5010522;28;20048;-74
2023/08/19 08:57:07;;;;;;;15.10;2.30;;;;;;;25.11;100.00;100551.09;5012775;28;20036;-74
2023/08/19 08:59:54;;;;;;;10.85;2.08;;;;;;;25.39;100.00;100551.38;5021475;28;20068;-74
2023/08/19 09:02:40;;;;;;;15.32;2.70;;;;;;;25.63;100.00;100535.69;5024084;28;20040;-74
2023/08/19 09:05:26;;;;;;;10.57;2.35;;;;;;;25.93;100.00;100545.25;5018214;28;20103;-74
2023/08/19 09:08:13;;;;;;;9.88;2.42;;;;;;;26.25;100.00;100542.56;5003950;28;20042;-74
2023/08/19 09:11:02;;;;;;;13.98;2.38;;;;;;;26.52;100.00;100541.06;5009005;28;20493;-74
2023/08/19 09:13:49;;;;;;;10.48;2.22;;;;;;;26.77;100.00;100551.66;5036658;28;20034;-74
2023/08/19 09:16:35;;;;;;;10.77;1.92;;;;;;;27.05;100.00;100550.91;4998086;28;20042;-74
2023/08/19 09:19:21;;;;;;;10.40;2.17;;;;;;;27.27;100.00;100548.91;5001808;28;20513;-74
2023/08/19 09:22:16;;;;;;;10.00;1.80;;;;;;;27.37;100.00;100548.09;5037619;28;20112;-74
2023/08/19 09:25:05;;;;;;;10.48;2.10;;;;;;;27.47;100.00;100555.03;5027905;28;20496;-74
2023/08/19 09:27:51;;;;;;;9.50;1.63;;;;;;;27.56;100.00;100552.56;5010547;28;20125;-74
2023/08/19 09:30:37;;;;;;;11.18;1.98;;;;;;;27.62;100.00;100552.94;5023187;28;20043;-74
2023/08/19 09:33:23;;;;;;;10.43;1.95;;;;;;;27.62;100.00;100556.63;5017139;28;20030;-73
2023/08/19 09:36:09;;;;;;;7.80;1.77;;;;;;;27.74;100.00;100561.06;5013232;28;20065;-74
2023/08/19 09:38:55;;;;;;;8.18;1.67;;;;;;;27.80;100.00;100565.19;5036073;28;20033;-74
2023/08/19 09:41:41;;;;;;;7.85;1.48;;;;;;;27.95;100.00;100562.28;5035407;28;20567;-74
2023/08/19 09:44:27;;;;;;;9.98;1.92;;;;;;;28.12;100.00;100572.84;5003430;28;20040;-74
2023/08/19 09:47:13;;;;;;;8.25;1.77;;;;;;;28.19;100.00;100571.97;5023433;28;20033;-74
2023/08/19 09:49:59;;;;;;;8.10;1.67;;;;;;;28.26;100.00;100574.81;5023271;28;20033;-74
2023/08/19 09:52:58;;;;;;;6.50;1.35;;;;;;;28.29;100.00;100574.00;5009077;28;20112;-74
2023/08/19 09:55:45;;;;;;;7.40;1.50;;;;;;;28.35;100.00;100577.22;5031104;28;20033;-74
2023/08/19 09:58:31;;;;;;;11.68;1.75;;;;;;;28.31;100.00;100577.25;5022807;28;20048;-74
2023/08/19 10:01:17;;;;;;;10.30;1.77;;;;;;;28.29;100.00;100571.13;5019112;28;20041;-74
2023/08/19 10:04:03;;;;;;;7.88;1.45;;;;;;;28.25;100.00;100581.75;5009539;28;20464;-74
2023/08/19 10:06:51;;;;;;;11.35;2.38;;;;;;;28.21;100.00;100576.06;5012432;28;20037;-74
2023/08/19 10:09:37;;;;;;;7.18;1.60;;;;;;;28.23;100.00;100579.31;5017378;28;20044;-74
2023/08/19 10:12:23;;;;;;;8.07;1.50;;;;;;;28.27;100.00;100568.69;5032063;28;20037;-74
2023/08/19 10:15:13;;;;;;;8.15;1.70;;;;;;;28.32;100.00;100570.31;5015582;28;20445;-74
2023/08/19 10:18:00;;;;;;;9.50;1.42;;;;;;;28.42;100.00;100578.06;5024926;28;20096;-74
2023/08/19 10:20:49;;;;;;;10.93;1.77;;;;;;;28.56;100.00;100582.88;5023605;28;20029;-74
2023/08/19 10:23:35;;;;;;;8.68;1.50;;;;;;;28.73;100.00;100584.81;5013201;28;20091;-74
2023/08/19 10:26:21;;;;;;;6.97;1.75;;;;;;;28.93;100.00;100579.41;4995456;28;20091;-74
2023/08/19 10:29:07;;;;;;;7.50;1.35;;;;;;;29.10;96.56;100591.97;5010134;28;20140;-74
2023/08/19 10:31:53;;;;;;;8.02;1.67;;;;;;;29.35;97.61;100597.50;5007134;28;20037;-74
2023/08/19 10:34:45;;;;;;;7.43;1.65;;;;;;;29.59;95.28;100595.66;5027221;28;20042;-74
2023/08/19 10:37:31;;;;;;;9.30;1.63;;;;;;;29.84;94.37;100597.50;5007176;28;20045;-74
2023/08/19 10:40:21;;;;;;;6.20;1.60;;;;;;;30.01;92.29;100599.34;5035788;28;20048;-74
2023/08/19 10:43:07;;;;;;;4.88;1.30;;;;;;;30.13;90.60;100600.84;5020221;28;20517;-74
2023/08/19 10:45:57;;;;;;;7.75;1.38;;;;;;;30.30;91.86;100604.78;5022712;28;20030;-74
2023/08/19 10:48:48;;;;;;;10.05;1.55;;;;;;;30.44;91.21;100598.88;5011143;28;20040;-74
2023/08/19 10:51:44;;;;;;;8.80;1.63;;;;;;;30.62;93.11;100592.91;5039697;28;20033;-74
2023/08/19 10:54:39;;;;;;;8.85;1.88;;;;;;;30.76;86.46;100594.78;5038704;28;20050;-74
2023/08/19 10:57:26;;;;;;;5.97;1.45;;;;;;;30.92;87.08;100595.00;5006560;28;20044;-74
2023/08/19 11:00:12;;;;;;;5.70;1.35;;;;;;;31.11;85.30;100589.78;4999985;28;20044;-74
2023/08/19 11:02:58;;;;;;;6.05;1.17;;;;;;;31.20;79.91;100597.81;5009711;28;20465;-74
2023/08/19 11:05:51;;;;;;;6.78;1.40;;;;;;;31.34;79.29;100592.69;5039063;28;20037;-74
2023/08/19 11:08:41;;;;;;;7.18;1.30;;;;;;;31.51;77.92;100595.69;5019917;28;20069;-74
2023/08/19 11:11:27;;;;;;;5.72;1.13;;;;;;;31.65;75.76;100589.72;5023792;28;20033;-74
2023/08/19 11:14:19;;;;;;;5.93;1.42;;;;;;;31.77;76.27;100589.09;5025766;28;20041;-74
2023/08/19 11:17:05;;;;;;;5.75;1.20;;;;;;;31.88;71.69;100586.03;5026600;28;20401;-74
2023/08/19 11:19:51;;;;;;;4.47;1.08;;;;;;;32.09;70.30;100584.81;5027143;28;20041;-74
2023/08/19 11:22:43;;;;;;;6.50;1.30;;;;;;;32.22;69.57;100585.78;5025622;28;20402;-74
2023/08/19 11:25:37;;;;;;;6.93;1.20;;;;;;;32.39;67.16;100598.16;5037770;28;20065;-74
2023/08/19 11:28:22;;;;;;;6.22;1.27;;;;;;;32.54;70.61;100610.22;5025992;28;20060;-74
2023/08/19 11:31:08;;;;;;;6.43;1.17;;;;;;;32.67;71.97;100602.50;5026303;28;20045;-74
2023/08/19 11:33:54;;;;;;;5.10;1.30;;;;;;;32.77;67.73;100612.16;5012173;28;20033;-74
2023/08/19 11:36:42;;;;;;;6.70;1.65;;;;;;;32.87;67.51;100616.03;5038549;28;20038;-74
2023/08/19 11:39:32;;;;;;;6.95;1.13;;;;;;;32.97;65.26;100619.94;5028425;28;20040;-74
2023/08/19 11:42:18;;;;;;;8.43;1.35;;;;;;;33.03;64.77;100615.31;5025505;28;20036;-74
2023/08/19 11:45:07;;;;;;;4.03;0.80;;;;;;;33.04;60.93;100620.63;5011246;28;20037;-74
2023/08/19 11:47:53;;;;;;;4.82;1.13;;;;;;;33.13;62.39;100620.00;5025921;28;20562;-74
2023/08/19 11:50:48;;;;;;;6.85;1.17;;;;;;;33.18;62.43;100610.81;5027212;28;20033;-74
2023/08/19 11:53:34;;;;;;;4.22;1.00;;;;;;;33.21;61.71;100615.69;5024718;28;20034;-74
2023/08/19 11:56:20;;;;;;;6.07;1.25;;;;;;;33.28;62.02;100612.63;5037226;28;20033;-74
2023/08/19 11:59:06;;;;;;;5.68;1.25;;;;;;;33.39;60.68;100621.00;5048668;28;20044;-74
2023/08/19 12:01:52;;;;;;;5.43;1.05;;;;;;;33.38;58.22;100616.53;4993135;28;20026;-74
2023/08/19 12:04:38;;;;;;;5.90;1.10;;;;;;;33.46;54.44;100614.25;5011661;28;20037;-74
2023/08/19 12:07:28;;;;;;;6.07;1.40;;;;;;;33.56;56.85;100614.00;5024656;28;20034;-74
2023/08/19 12:10:14;;;;;;;4.28;0.90;;;;;;;33.69;58.31;100619.06;5007676;28;20026;-74
2023/08/19 12:13:00;;;;;;;6.90;1.10;;;;;;;33.73;57.37;100608.25;5037168;28;20497;-74
2023/08/19 12:15:46;;;;;;;5.75;1.20;;;;;;;33.82;56.82;100617.03;5024158;28;20037;-74
2023/08/19 12:18:32;;;;;;;4.50;0.85;;;;;;;33.91;56.64;100625.88;5035750;28;20050;-74
2023/08/19 12:21:18;;;;;;;6.07;1.10;;;;;;;33.90;55.29;100627.09;5038072;28;20116;-74
2023/08/19 12:24:04;;;;;;;4.43;1.13;;;;;;;34.03;56.53;100618.53;5006774;28;20038;-74
2023/08/19 12:26:50;;;;;;;3.97;1.00;;;;;;;34.11;55.72;100630.72;5038611;28;20037;-74
2023/08/19 12:29:36;;;;;;;5.32;1.10;;;;;;;34.12;54.28;100635.19;5026130;28;20029;-74
2023/08/19 12:32:22;;;;;;;5.03;1.10;;;;;;;34.15;54.58;100631.41;5024633;28;20095;-74
2023/08/19 12:35:09;;;;;;;6.13;1.10;;;;;;;34.09;53.85;100628.28;5023787;28;20038;-74
2023/08/19 12:37:56;;;;;;;3.75;0.90;;;;;;;34.11;54.48;100627.84;5008536;28;20120;-74
2023/08/19 12:40:42;;;;;;;4.63;0.90;;;;;;;34.14;55.45;100629.81;5023547;28;20048;-74
2023/08/19 12:43:28;;;;;;;5.32;0.90;;;;;;;34.15;54.41;100623.56;5024497;28;20053;-74
2023/08/19 12:46:16;;;;;;;4.30;0.90;;;;;;;34.15;54.51;100617.00;5036697;28;20264;-74